Time;durP1;ratioP1;P1;durP2;ratioP2;P2;SDS_P1;SDS_P2;PMS_P1;PMS_P2;Temp;Humidity;BMP_temperature;BMP_pressure;BME280_temperature;BME280_humidity;BME280_pressure;Samples;Min_cycle;Max_cycle;Signal;HPM_P1;HPM_P2
2022/04/17 00:00:04;;;;;;;5.70;3.88;;;9.90;91.30;;;;;;5020462;28;20751;-67
2022/04/17 00:02:30;;;;;;;5.80;3.63;;;9.90;90.50;;;;;;5014909;28;20045;-67
2022/04/17 00:04:55;;;;;;;5.25;3.70;;;9.80;90.40;;;;;;5019433;28;20531;-67
2022/04/17 00:07:21;;;;;;;5.60;3.72;;;9.80;90.40;;;;;;5026656;28;20049;-67
2022/04/17 00:09:46;;;;;;;7.40;3.53;;;9.80;90.70;;;;;;5026025;28;20129;-68
2022/04/17 00:12:12;;;;;;;7.85;3.50;;;9.80;91.20;;;;;;5011643;28;20095;-67
2022/04/17 00:14:37;;;;;;;5.85;3.90;;;9.80;91.20;;;;;;5012282;28;20729;-67
2022/04/17 00:17:03;;;;;;;8.77;4.30;;;9.70;91.00;;;;;;5016222;28;20054;-67
2022/04/17 00:19:29;;;;;;;5.63;3.85;;;9.70;92.20;;;;;;5011486;28;20038;-67
2022/04/17 00:21:55;;;;;;;7.80;3.75;;;9.70;92.30;;;;;;5017957;28;20079;-67
2022/04/17 00:24:21;;;;;;;6.43;3.65;;;9.70;92.20;;;;;;5011011;28;20042;-67
2022/04/17 00:26:46;;;;;;;11.68;4.38;;;9.70;91.70;;;;;;5010367;28;20497;-67
2022/04/17 00:29:12;;;;;;;5.60;3.83;;;9.70;92.20;;;;;;5025575;28;20041;-67
2022/04/17 00:31:37;;;;;;;5.03;3.95;;;9.60;91.70;;;;;;5027933;28;20052;-67
2022/04/17 00:34:03;;;;;;;4.43;3.53;;;9.60;92.60;;;;;;5019119;28;20060;-67
2022/04/17 00:36:29;;;;;;;5.10;3.83;;;9.60;92.80;;;;;;5016655;28;20073;-67
2022/04/17 00:38:54;;;;;;;6.22;3.70;;;9.60;92.70;;;;;;5017320;28;20061;-67
2022/04/17 00:41:20;;;;;;;5.18;3.53;;;9.60;91.50;;;;;;5024566;28;20081;-67
2022/04/17 00:43:47;;;;;;;5.07;3.70;;;9.60;91.40;;;;;;5013313;28;20099;-67
2022/04/17 00:46:13;;;;;;;5.13;3.60;;;9.50;92.30;;;;;;5013230;28;20077;-67
2022/04/17 00:48:39;;;;;;;5.20;3.10;;;9.50;91.80;;;;;;5013196;28;20041;-67
2022/04/17 00:51:05;;;;;;;6.82;3.83;;;9.50;91.60;;;;;;5013144;28;20462;-67
2022/04/17 00:53:31;;;;;;;4.90;3.58;;;9.50;91.60;;;;;;5013525;28;20537;-67
2022/04/17 00:55:58;;;;;;;7.85;3.25;;;9.50;92.10;;;;;;5020106;28;20141;-67
2022/04/17 00:58:29;;;;;;;7.80;3.50;;;9.50;92.20;;;;;;5025365;28;20132;-67
2022/04/17 01:00:55;;;;;;;5.60;3.47;;;9.50;92.20;;;;;;5018141;28;20060;-67
2022/04/17 01:03:21;;;;;;;6.45;4.60;;;9.40;92.10;;;;;;5027388;28;20428;-68
2022/04/17 01:05:47;;;;;;;4.35;3.40;;;9.40;91.90;;;;;;5029846;28;20045;-67
2022/04/17 01:08:13;;;;;;;7.95;4.15;;;9.40;91.50;;;;;;5019090;28;20129;-67
2022/04/17 01:10:39;;;;;;;5.95;4.40;;;9.40;91.60;;;;;;5012941;28;20486;-67
2022/04/17 01:13:09;;;;;;;9.32;3.90;;;9.40;91.40;;;;;;5015466;28;20437;-67
2022/04/17 01:15:37;;;;;;;7.15;3.47;;;9.30;91.70;;;;;;5021260;28;20104;-67
2022/04/17 01:18:04;;;;;;;5.53;3.47;;;9.40;92.30;;;;;;5010942;28;20034;-67
2022/04/17 01:20:30;;;;;;;9.77;4.55;;;9.40;91.80;;;;;;5021968;28;20046;-67
2022/04/17 01:26:56;;;;;;;6.05;3.72;;;9.40;91.60;;;;;;5016451;28;20402;-67
2022/04/17 01:28:27;;;;;;;4.40;3.40;;;9.30;91.80;;;;;;5026136;28;20053;-67
2022/04/17 01:30:53;;;;;;;6.40;4.35;;;9.30;92.20;;;;;;5012711;28;20124;-67
2022/04/17 01:33:19;;;;;;;5.75;3.20;;;9.30;92.20;;;;;;5025538;28;20083;-67
2022/04/17 01:35:44;;;;;;;6.25;4.30;;;9.30;92.10;;;;;;5021585;28;20401;-67
2022/04/17 01:38:10;;;;;;;6.43;4.10;;;9.20;92.20;;;;;;5011999;28;20046;-67
2022/04/17 01:40:36;;;;;;;9.88;4.20;;;9.20;92.20;;;;;;5021042;28;20037;-67
2022/04/17 01:43:01;;;;;;;7.30;4.43;;;9.20;92.20;;;;;;5028323;28;20141;-67
2022/04/17 01:45:27;;;;;;;6.75;4.30;;;9.20;92.00;;;;;;5019980;28;20116;-67
2022/04/17 01:47:54;;;;;;;6.78;4.13;;;9.10;92.70;;;;;;5010762;28;20057;-67
2022/04/17 01:50:20;;;;;;;4.88;4.03;;;9.10;92.10;;;;;;5012722;28;20124;-67
2022/04/17 01:52:45;;;;;;;9.80;4.35;;;9.10;92.70;;;;;;5022998;28;20136;-67
2022/04/17 01:55:11;;;;;;;7.18;4.18;;;9.10;92.40;;;;;;5013480;28;20104;-67
2022/04/17 01:57:36;;;;;;;6.38;3.70;;;9.10;92.30;;;;;;5028836;28;20038;-67
2022/04/17 02:00:03;;;;;;;7.22;4.18;;;9.10;92.50;;;;;;5029538;28;20057;-67
2022/04/17 02:02:28;;;;;;;5.85;4.32;;;9.00;93.00;;;;;;5024369;28;20041;-67
2022/04/17 02:04:54;;;;;;;12.70;4.20;;;9.00;92.30;;;;;;5020775;28;20033;-67
2022/04/17 02:07:19;;;;;;;7.38;4.20;;;8.90;92.50;;;;;;5030474;28;20452;-67
2022/04/17 02:09:45;;;;;;;5.82;4.38;;;8.90;92.70;;;;;;5010169;28;20049;-67
2022/04/17 02:12:11;;;;;;;11.25;5.07;;;8.90;92.50;;;;;;5010698;28;20103;-67
2022/04/17 02:14:37;;;;;;;4.60;3.40;;;8.90;92.90;;;;;;5024441;28;20123;-67
2022/04/17 02:17:03;;;;;;;6.82;4.75;;;8.90;92.80;;;;;;5025522;28;20673;-67
2022/04/17 02:19:28;;;;;;;7.55;4.43;;;8.80;92.90;;;;;;5021301;28;20054;-67
2022/04/17 02:21:54;;;;;;;10.32;4.28;;;8.70;93.20;;;;;;5030197;28;20037;-67
2022/04/17 02:24:19;;;;;;;6.72;4.10;;;8.70;93.60;;;;;;5015084;28;20084;-67
2022/04/17 02:26:45;;;;;;;5.90;4.47;;;8.60;93.30;;;;;;5014725;28;20049;-67
2022/04/17 02:29:11;;;;;;;6.65;4.53;;;8.70;93.80;;;;;;5029452;28;20394;-67
2022/04/17 02:31:37;;;;;;;8.27;4.35;;;8.60;94.00;;;;;;5026954;28;20041;-67
2022/04/17 02:34:02;;;;;;;6.78;4.63;;;8.60;93.60;;;;;;5016134;28;20111;-67
2022/04/17 02:36:28;;;;;;;5.72;4.32;;;8.60;94.20;;;;;;5027541;28;20041;-67
2022/04/17 02:38:54;;;;;;;8.73;4.32;;;8.50;94.00;;;;;;5025523;28;20505;-67
2022/04/17 02:41:19;;;;;;;6.68;4.75;;;8.50;94.30;;;;;;5014583;28;20037;-67
2022/04/17 02:43:45;;;;;;;7.60;5.03;;;8.50;94.60;;;;;;5012079;28;20124;-67
2022/04/17 02:46:11;;;;;;;10.00;4.80;;;8.50;94.80;;;;;;5019508;28;20046;-67
2022/04/17 02:48:36;;;;;;;11.07;4.53;;;8.40;94.40;;;;;;5024437;28;20042;-67
2022/04/17 02:51:02;;;;;;;8.27;4.78;;;8.40;94.50;;;;;;5017207;28;20516;-67
2022/04/17 02:53:30;;;;;;;12.70;5.05;;;8.40;94.70;;;;;;5013683;28;20071;-67
2022/04/17 02:55:56;;;;;;;8.43;5.15;;;8.40;94.70;;;;;;5010886;28;20050;-67
2022/04/17 02:58:21;;;;;;;8.30;5.68;;;8.40;95.00;;;;;;5016617;28;20056;-67
2022/04/17 03:06:15;;;;;;;7.68;5.35;;;8.30;95.10;;;;;;5030007;28;20060;-67
2022/04/17 03:08:41;;;;;;;7.90;5.30;;;8.30;95.20;;;;;;5015581;28;20042;-67
2022/04/17 03:11:07;;;;;;;7.78;5.60;;;8.30;95.80;;;;;;5024895;28;20742;-67
2022/04/17 03:13:33;;;;;;;10.05;5.97;;;8.20;95.60;;;;;;5028089;28;20057;-67
2022/04/17 03:15:59;;;;;;;8.68;5.68;;;8.20;95.80;;;;;;5015586;28;20038;-67
2022/04/17 03:18:24;;;;;;;6.95;4.82;;;8.30;95.70;;;;;;5009672;28;20077;-67
2022/04/17 03:20:51;;;;;;;8.43;5.55;;;8.20;96.10;;;;;;5012626;28;20050;-67
2022/04/17 03:23:17;;;;;;;6.95;5.32;;;8.20;96.10;;;;;;5012122;28;20095;-67
2022/04/17 03:25:43;;;;;;;10.43;5.40;;;8.10;96.80;;;;;;5020293;28;20049;-67
2022/04/17 03:28:09;;;;;;;7.13;5.32;;;8.10;96.40;;;;;;5029378;28;20052;-67
2022/04/17 03:30:34;;;;;;;7.97;5.18;;;8.10;96.90;;;;;;5019554;28;20034;-67
2022/04/17 03:33:01;;;;;;;7.85;5.22;;;8.10;97.10;;;;;;5019380;28;20500;-67
2022/04/17 03:35:26;;;;;;;9.25;5.40;;;8.00;97.00;;;;;;5026188;28;20042;-67
2022/04/17 03:37:53;;;;;;;6.90;5.53;;;8.00;96.90;;;;;;5022008;28;20045;-67
2022/04/17 03:40:19;;;;;;;8.27;5.45;;;8.00;97.30;;;;;;5017316;28;20140;-67
2022/04/17 03:42:45;;;;;;;8.75;4.90;;;7.90;97.20;;;;;;5009893;28;20189;-67
2022/04/17 03:45:12;;;;;;;8.75;5.63;;;7.90;97.50;;;;;;5011146;28;20093;-67
2022/04/17 03:47:38;;;;;;;8.15;6.28;;;7.90;97.40;;;;;;5012990;28;20050;-67
2022/04/17 03:50:04;;;;;;;7.00;5.40;;;7.90;97.70;;;;;;5010385;28;20037;-67
2022/04/17 03:52:40;;;;;;;9.20;5.20;;;7.90;97.50;;;;;;5029397;28;20105;-67
2022/04/17 03:55:06;;;;;;;9.30;5.70;;;7.90;97.60;;;;;;5023850;28;20058;-67
2022/04/17 03:57:32;;;;;;;9.50;5.63;;;7.80;97.80;;;;;;5013206;28;20045;-67
2022/04/17 03:59:58;;;;;;;10.13;6.63;;;7.80;97.80;;;;;;5027706;28;20144;-67
2022/04/17 04:02:24;;;;;;;8.75;6.05;;;7.80;98.10;;;;;;5015039;28;20046;-67
2022/04/17 04:04:50;;;;;;;7.88;5.65;;;7.80;98.00;;;;;;5022100;28;20038;-67
2022/04/17 04:07:16;;;;;;;10.27;5.95;;;7.70;98.10;;;;;;5019355;28;20055;-67
2022/04/17 04:09:41;;;;;;;7.45;5.88;;;7.70;98.30;;;;;;5021671;28;20578;-67
2022/04/17 04:12:07;;;;;;;10.82;7.20;;;7.70;98.90;;;;;;5013302;28;20092;-67
2022/04/17 04:14:33;;;;;;;10.38;6.47;;;7.70;99.00;;;;;;5017732;28;20037;-67
2022/04/17 04:16:59;;;;;;;12.07;6.70;;;7.60;99.20;;;;;;5026110;28;20097;-67
2022/04/17 04:19:25;;;;;;;8.63;6.43;;;7.70;98.90;;;;;;5016632;28;20050;-67
2022/04/17 04:21:50;;;;;;;6.85;5.05;;;7.70;99.20;;;;;;5010742;28;20498;-67
2022/04/17 04:24:19;;;;;;;9.30;6.43;;;7.60;99.30;;;;;;5013485;28;20045;-67
2022/04/17 04:28:32;;;;;;;9.32;6.50;;;7.60;99.70;;;;;;5017316;28;20045;-67
2022/04/17 04:29:31;;;;;;;10.15;6.43;;;7.50;99.90;;;;;;5018188;28;20100;-67
2022/04/17 04:31:57;;;;;;;9.68;6.65;;;7.50;99.90;;;;;;5018531;28;20132;-67
2022/04/17 04:34:23;;;;;;;11.40;7.50;;;7.50;99.90;;;;;;5030127;28;20125;-67
2022/04/17 04:36:48;;;;;;;8.57;5.68;;;7.50;99.90;;;;;;5013426;28;20441;-67
2022/04/17 04:39:14;;;;;;;12.75;6.50;;;7.50;99.90;;;;;;5011463;28;20049;-67
2022/04/17 04:41:39;;;;;;;12.40;7.03;;;7.50;99.90;;;;;;5013274;28;20077;-67
2022/04/17 04:44:05;;;;;;;9.20;6.60;;;7.50;99.90;;;;;;5013031;28;20068;-67
2022/04/17 04:46:30;;;;;;;10.43;6.18;;;7.40;99.90;;;;;;5018291;28;20401;-67
2022/04/17 04:51:40;;;;;;;10.77;6.40;;;7.50;99.90;;;;;;5011728;28;20120;-67
2022/04/17 04:54:07;;;;;;;8.23;6.63;;;7.40;99.90;;;;;;5012378;28;20505;-67
2022/04/17 04:56:33;;;;;;;10.88;6.43;;;7.50;99.90;;;;;;5018011;28;20045;-67
2022/04/17 04:58:59;;;;;;;9.82;6.68;;;7.50;99.90;;;;;;5022955;28;20133;-67
2022/04/17 05:01:25;;;;;;;10.07;6.22;;;7.40;99.90;;;;;;5022853;28;20132;-67
2022/04/17 05:03:50;;;;;;;9.80;6.97;;;7.50;99.90;;;;;;5030673;28;20045;-67
2022/04/17 05:06:17;;;;;;;12.02;6.78;;;7.50;99.90;;;;;;5026571;28;20049;-67
2022/04/17 05:08:42;;;;;;;8.73;6.97;;;7.50;99.90;;;;;;5030300;28;20060;-67
2022/04/17 05:11:08;;;;;;;11.57;6.88;;;7.40;99.90;;;;;;5032123;28;20046;-67
2022/04/17 05:13:34;;;;;;;12.02;7.05;;;7.50;99.90;;;;;;5027170;28;20073;-67
2022/04/17 05:16:00;;;;;;;9.85;7.13;;;7.50;99.90;;;;;;5016044;28;20042;-67
2022/04/17 05:18:26;;;;;;;11.23;7.70;;;7.50;99.90;;;;;;5017017;28;20038;-67
2022/04/17 05:20:51;;;;;;;10.18;7.53;;;7.60;99.90;;;;;;5010982;28;20061;-67
2022/04/17 05:23:28;;;;;;;9.75;6.57;;;7.60;99.90;;;;;;5008814;28;20115;-67
2022/04/17 05:25:56;;;;;;;10.70;6.70;;;7.60;99.90;;;;;;5023835;28;20120;-67
2022/04/17 05:28:22;;;;;;;8.98;6.60;;;7.60;99.90;;;;;;5017939;28;20145;-67
2022/04/17 05:30:48;;;;;;;10.60;7.18;;;7.70;99.90;;;;;;5014577;28;20096;-67
2022/04/17 05:33:16;;;;;;;10.25;8.02;;;7.70;99.90;;;;;;5011008;28;20069;-67
2022/04/17 05:35:42;;;;;;;11.60;7.72;;;7.70;99.90;;;;;;5013740;28;20108;-67
2022/04/17 05:38:08;;;;;;;11.05;7.32;;;7.80;99.90;;;;;;5011303;28;20050;-67
2022/04/17 05:40:35;;;;;;;12.15;6.65;;;7.80;99.90;;;;;;5009726;28;20050;-67
2022/04/17 05:43:02;;;;;;;11.50;7.97;;;7.80;99.90;;;;;;5010634;28;20046;-67
2022/04/17 05:45:28;;;;;;;10.23;7.85;;;7.70;99.90;;;;;;5014585;28;20073;-67
2022/04/17 05:47:54;;;;;;;11.48;6.80;;;7.80;99.90;;;;;;5015761;28;20080;-67
2022/04/17 05:50:20;;;;;;;8.65;6.53;;;7.90;99.90;;;;;;5016579;28;20504;-67
2022/04/17 05:52:46;;;;;;;10.35;7.75;;;7.90;99.90;;;;;;5026419;28;20128;-68
2022/04/17 05:55:12;;;;;;;10.38;6.75;;;8.00;99.90;;;;;;5009712;28;20128;-67
2022/04/17 05:57:37;;;;;;;12.18;7.32;;;8.10;99.90;;;;;;5018936;28;20390;-68
2022/04/17 06:00:08;;;;;;;11.82;6.60;;;8.10;99.90;;;;;;5024184;28;20041;-68
2022/04/17 06:02:38;;;;;;;11.13;6.72;;;8.10;99.90;;;;;;5022193;28;20072;-68
2022/04/17 06:05:04;;;;;;;10.60;6.43;;;8.20;99.90;;;;;;5012599;28;20446;-69
2022/04/17 06:07:30;;;;;;;9.40;6.97;;;8.30;99.90;;;;;;5025244;28;20098;-68
2022/04/17 06:10:00;;;;;;;9.48;6.95;;;8.30;99.90;;;;;;5010088;28;20504;-68
2022/04/17 06:12:25;;;;;;;8.38;6.72;;;8.30;99.90;;;;;;5012664;28;20056;-68
2022/04/17 06:14:51;;;;;;;9.57;7.07;;;8.30;99.90;;;;;;5013843;28;20045;-67
2022/04/17 06:17:16;;;;;;;10.07;6.80;;;8.40;99.90;;;;;;5016000;28;20042;-68
2022/04/17 06:19:43;;;;;;;9.85;6.00;;;8.40;99.90;;;;;;5011491;28;20076;-68
2022/04/17 06:22:10;;;;;;;10.15;7.53;;;8.50;99.90;;;;;;5021621;28;20057;-68
2022/04/17 06:24:36;;;;;;;12.93;6.82;;;8.50;99.90;;;;;;5027192;28;20045;-68
2022/04/17 06:27:02;;;;;;;11.98;7.05;;;8.60;99.90;;;;;;5012525;28;20394;-68
2022/04/17 06:29:27;;;;;;;12.13;7.32;;;8.60;99.90;;;;;;5023528;28;20046;-68
2022/04/17 06:31:53;;;;;;;11.65;7.85;;;8.60;99.90;;;;;;5013273;28;20394;-68
2022/04/17 06:34:19;;;;;;;12.45;7.03;;;8.70;99.90;;;;;;5027325;28;20124;-68
2022/04/17 06:36:44;;;;;;;10.40;7.10;;;8.80;99.90;;;;;;5011338;28;20065;-67
2022/04/17 06:39:10;;;;;;;8.77;6.85;;;8.90;99.90;;;;;;5014462;28;20390;-68
2022/04/17 06:41:36;;;;;;;11.48;6.80;;;9.00;99.90;;;;;;5008647;28;20470;-69
2022/04/17 06:44:02;;;;;;;8.30;5.72;;;9.10;99.90;;;;;;5021287;28;20077;-68
2022/04/17 06:46:27;;;;;;;11.60;7.47;;;9.10;99.90;;;;;;5025790;28;20485;-68
2022/04/17 06:48:53;;;;;;;12.18;6.40;;;9.20;99.90;;;;;;5011398;28;20049;-68
2022/04/17 06:51:23;;;;;;;10.05;7.40;;;9.30;99.90;;;;;;5010570;28;20046;-68
2022/04/17 06:53:52;;;;;;;9.77;6.55;;;9.40;99.80;;;;;;5016655;28;20061;-68
2022/04/17 06:56:18;;;;;;;12.85;7.45;;;9.40;99.30;;;;;;5027535;28;20054;-68
2022/04/17 06:58:48;;;;;;;9.73;6.20;;;9.40;99.50;;;;;;5015166;28;20033;-68
2022/04/17 07:01:17;;;;;;;11.60;6.57;;;9.50;99.30;;;;;;5025935;28;20042;-68
2022/04/17 07:03:44;;;;;;;15.15;6.72;;;9.60;99.10;;;;;;5014000;28;20050;-68
2022/04/17 07:06:10;;;;;;;9.50;6.32;;;9.60;99.20;;;;;;5028660;28;20470;-68
2022/04/17 07:08:35;;;;;;;10.13;6.78;;;9.70;99.10;;;;;;5029148;28;20049;-68
2022/04/17 07:11:01;;;;;;;9.13;7.25;;;9.80;99.20;;;;;;5014415;28;20048;-68
2022/04/17 07:13:27;;;;;;;10.88;6.85;;;9.70;99.10;;;;;;5017447;28;20046;-68
2022/04/17 07:15:52;;;;;;;9.07;5.93;;;9.80;99.20;;;;;;5017668;28;20049;-68
2022/04/17 07:18:18;;;;;;;9.63;6.60;;;9.80;98.90;;;;;;5024384;28;20457;-67
2022/04/17 07:20:44;;;;;;;9.13;6.38;;;10.00;99.10;;;;;;5012387;28;20493;-68
2022/04/17 07:23:10;;;;;;;11.25;7.35;;;10.00;99.30;;;;;;5012419;28;20056;-67
2022/04/17 07:25:38;;;;;;;9.40;6.13;;;9.90;98.80;;;;;;5029453;28;20041;-68
2022/04/17 07:28:05;;;;;;;9.15;6.88;;;10.10;99.30;;;;;;5027009;28;20132;-68
2022/04/17 07:30:33;;;;;;;9.65;7.25;;;10.10;98.50;;;;;;5019687;28;20088;-67
2022/04/17 07:33:00;;;;;;;12.75;7.15;;;10.20;99.20;;;;;;5023665;28;20409;-67
2022/04/17 07:35:27;;;;;;;9.48;6.05;;;10.30;98.70;;;;;;5031396;28;20515;-67
2022/04/17 07:37:58;;;;;;;10.65;6.95;;;10.30;99.60;;;;;;5023414;28;20095;-67
2022/04/17 07:40:27;;;;;;;12.23;7.28;;;10.30;99.40;;;;;;5031454;28;20069;-69
2022/04/17 07:42:54;;;;;;;8.45;6.47;;;10.40;99.30;;;;;;5029529;28;20056;-68
2022/04/17 07:45:21;;;;;;;9.98;6.78;;;10.50;99.30;;;;;;5029875;28;20099;-68
2022/04/17 07:47:47;;;;;;;9.65;6.30;;;10.60;99.20;;;;;;5029592;28;20049;-68
2022/04/17 07:50:18;;;;;;;9.00;6.00;;;10.60;98.80;;;;;;5029213;28;20076;-68
2022/04/17 07:52:44;;;;;;;8.38;6.50;;;10.70;99.00;;;;;;5030837;28;20041;-68
2022/04/17 07:55:12;;;;;;;10.85;7.05;;;10.70;99.10;;;;;;5027443;28;20052;-68
2022/04/17 08:00:23;;;;;;;10.85;6.55;;;10.80;98.00;;;;;;5014722;28;20045;-68
2022/04/17 08:02:52;;;;;;;7.40;5.25;;;10.90;98.10;;;;;;5018481;28;20058;-68
2022/04/17 08:05:25;;;;;;;9.52;6.20;;;10.90;97.50;;;;;;5013783;28;20049;-68
2022/04/17 08:07:52;;;;;;;11.77;6.97;;;10.90;97.60;;;;;;5016101;28;20041;-68
2022/04/17 08:10:17;;;;;;;8.90;6.35;;;11.00;97.40;;;;;;5018974;28;20052;-68
2022/04/17 08:12:43;;;;;;;11.65;5.80;;;11.10;96.50;;;;;;5031335;28;20045;-68
2022/04/17 08:15:09;;;;;;;8.18;5.97;;;11.10;96.30;;;;;;5032567;28;20045;-68
2022/04/17 08:17:35;;;;;;;9.82;7.10;;;11.10;96.80;;;;;;5014725;28;20054;-68
2022/04/17 08:20:00;;;;;;;12.02;6.50;;;11.20;96.70;;;;;;5031726;28;20040;-68
2022/04/17 08:22:26;;;;;;;10.90;7.25;;;11.30;96.30;;;;;;5031102;28;20053;-68
2022/04/17 08:24:52;;;;;;;9.27;6.32;;;11.30;96.30;;;;;;5026193;28;20326;-68
2022/04/17 08:27:17;;;;;;;7.32;5.25;;;11.50;97.10;;;;;;5020467;28;20077;-67
2022/04/17 08:29:43;;;;;;;7.63;5.88;;;11.70;96.30;;;;;;5020134;28;20084;-68
2022/04/17 08:32:09;;;;;;;12.02;5.72;;;11.80;96.70;;;;;;5011537;28;20053;-68
2022/04/17 08:34:34;;;;;;;8.90;5.65;;;12.20;96.80;;;;;;5012493;28;20509;-68
2022/04/17 08:37:00;;;;;;;10.63;5.30;;;12.40;96.30;;;;;;5014311;28;20077;-68
2022/04/17 08:39:26;;;;;;;9.48;6.15;;;12.90;96.10;;;;;;5015876;28;20037;-68
2022/04/17 08:41:54;;;;;;;8.63;5.75;;;13.90;94.60;;;;;;5020123;28;20060;-68
2022/04/17 08:44:21;;;;;;;8.55;5.65;;;14.70;93.00;;;;;;5011186;28;20057;-68
2022/04/17 08:46:47;;;;;;;10.63;5.53;;;15.40;92.40;;;;;;5011995;28;20533;-68
2022/04/17 08:49:13;;;;;;;8.80;5.57;;;16.00;91.20;;;;;;5012747;28;20128;-68
2022/04/17 08:51:39;;;;;;;6.00;4.97;;;16.00;90.60;;;;;;5010075;28;20053;-68
2022/04/17 08:54:08;;;;;;;7.63;5.32;;;16.50;90.60;;;;;;5015091;28;20053;-68
2022/04/17 08:56:35;;;;;;;9.95;4.82;;;16.70;88.30;;;;;;5021291;28;20046;-68
2022/04/17 08:59:00;;;;;;;9.52;5.40;;;16.90;86.90;;;;;;5011534;28;20054;-68
2022/04/17 09:01:26;;;;;;;6.53;4.80;;;17.10;85.30;;;;;;5009467;28;20041;-68
2022/04/17 09:03:52;;;;;;;12.68;5.47;;;17.40;85.60;;;;;;5012215;28;20113;-68
2022/04/17 09:06:19;;;;;;;7.72;4.68;;;17.40;84.70;;;;;;5015962;28;20050;-68
2022/04/17 09:08:56;;;;;;;8.88;5.60;;;17.30;82.30;;;;;;5011779;28;20041;-68
2022/04/17 09:11:25;;;;;;;6.80;4.90;;;18.00;82.70;;;;;;5012135;28;20050;-68
2022/04/17 09:13:54;;;;;;;7.22;5.53;;;18.10;82.20;;;;;;5010366;28;20069;-68
2022/04/17 09:16:26;;;;;;;9.00;5.20;;;18.00;81.10;;;;;;5010563;28;20049;-68
2022/04/17 09:18:52;;;;;;;6.35;5.28;;;18.10;81.70;;;;;;5011746;28;20125;-67
2022/04/17 09:21:32;;;;;;;10.50;5.22;;;18.40;80.00;;;;;;5010300;28;20133;-67
2022/04/17 09:24:20;;;;;;;6.53;5.00;;;18.50;78.20;;;;;;5011680;28;20474;-67
2022/04/17 09:26:51;;;;;;;8.50;5.40;;;18.50;79.50;;;;;;5014772;28;20104;-68
2022/04/17 09:29:19;;;;;;;10.80;5.53;;;18.80;81.10;;;;;;5027127;28;20056;-67
2022/04/17 09:31:47;;;;;;;6.30;4.82;;;18.70;79.90;;;;;;5032037;28;20077;-68
2022/04/17 09:34:13;;;;;;;7.22;5.13;;;18.70;79.60;;;;;;5018411;28;20056;-67
2022/04/17 09:36:39;;;;;;;9.77;5.45;;;18.50;79.50;;;;;;5011622;28;20050;-68
2022/04/17 09:39:15;;;;;;;7.28;5.05;;;18.60;78.10;;;;;;5024600;28;20045;-67
2022/04/17 09:41:58;;;;;;;9.43;5.20;;;18.90;81.10;;;;;;5030013;28;20045;-67
2022/04/17 09:44:47;;;;;;;7.72;5.03;;;18.90;79.50;;;;;;5014923;28;20128;-67
2022/04/17 09:47:27;;;;;;;9.73;5.57;;;19.00;79.40;;;;;;5011074;28;20050;-67
2022/04/17 09:49:58;;;;;;;6.57;5.53;;;19.20;77.60;;;;;;5012019;28;20506;-68
2022/04/17 09:52:45;;;;;;;5.55;4.93;;;19.20;77.20;;;;;;5016365;28;20214;-68
2022/04/17 09:55:11;;;;;;;11.98;6.45;;;19.30;77.10;;;;;;5012407;28;20061;-68
2022/04/17 09:57:39;;;;;;;5.80;4.55;;;19.20;77.90;;;;;;5016490;28;20121;-68
2022/04/17 10:00:14;;;;;;;7.88;4.88;;;19.40;76.10;;;;;;5019504;28;20038;-68
2022/04/17 10:02:41;;;;;;;6.35;5.05;;;19.40;74.20;;;;;;5012218;28;20045;-67
2022/04/17 10:05:08;;;;;;;6.43;4.47;;;19.40;75.80;;;;;;5012108;28;20046;-68
2022/04/17 10:07:37;;;;;;;6.72;4.93;;;19.40;75.00;;;;;;5026787;28;20099;-67
2022/04/17 10:10:04;;;;;;;6.30;4.55;;;19.50;75.60;;;;;;5029260;28;20378;-68
2022/04/17 10:12:29;;;;;;;8.77;5.80;;;19.50;74.70;;;;;;5030622;28;20053;-67
2022/04/17 10:14:56;;;;;;;6.43;4.50;;;19.80;73.70;;;;;;5020321;28;20607;-68
2022/04/17 10:17:22;;;;;;;5.80;4.30;;;19.80;75.00;;;;;;5016946;28;20087;-67
2022/04/17 10:19:51;;;;;;;9.95;5.10;;;19.70;75.20;;;;;;5021753;28;20053;-68
2022/04/17 10:22:20;;;;;;;6.13;4.40;;;19.70;74.70;;;;;;5016730;28;20056;-67
2022/04/17 10:24:54;;;;;;;5.45;3.80;;;19.50;73.00;;;;;;5022999;28;20052;-68
2022/04/17 10:27:43;;;;;;;5.40;3.70;;;19.30;72.20;;;;;;5028720;28;20041;-67
2022/04/17 10:30:20;;;;;;;5.47;4.03;;;19.30;75.10;;;;;;5027893;28;20041;-67
2022/04/17 10:33:03;;;;;;;8.00;4.60;;;19.20;69.50;;;;;;5019916;28;20065;-67
2022/04/17 10:35:57;;;;;;;5.57;3.88;;;18.80;72.60;;;;;;5026970;28;20045;-67
2022/04/17 10:38:25;;;;;;;4.82;3.65;;;18.80;71.40;;;;;;5021481;28;20043;-67
2022/04/17 10:40:54;;;;;;;5.20;3.97;;;18.80;73.20;;;;;;5010227;28;20129;-67
2022/04/17 10:43:20;;;;;;;7.97;4.70;;;18.90;73.90;;;;;;5009698;28;20138;-67
2022/04/17 10:46:15;;;;;;;5.95;3.80;;;18.90;74.90;;;;;;5016517;28;20552;-68
2022/04/17 10:48:47;;;;;;;4.47;3.30;;;18.90;72.80;;;;;;5018570;28;20077;-67
2022/04/17 10:51:27;;;;;;;4.45;3.40;;;18.90;71.00;;;;;;5015780;28;20576;-67
2022/04/17 10:54:03;;;;;;;5.30;4.05;;;19.00;70.60;;;;;;5017964;28;20066;-68
2022/04/17 10:56:30;;;;;;;5.38;4.00;;;18.80;73.00;;;;;;5028091;28;20051;-68
2022/04/17 10:58:58;;;;;;;5.13;3.75;;;18.70;73.40;;;;;;5028545;28;20116;-68
2022/04/17 11:01:42;;;;;;;8.60;4.28;;;18.90;74.20;;;;;;5028481;28;20036;-68
2022/04/17 11:04:21;;;;;;;5.93;3.55;;;19.00;72.80;;;;;;5030659;28;20042;-68
2022/04/17 11:06:52;;;;;;;6.63;3.75;;;19.10;68.20;;;;;;5020136;28;20120;-68
2022/04/17 11:09:26;;;;;;;5.57;3.65;;;19.10;71.20;;;;;;5014595;28;20046;-68
2022/04/17 11:11:52;;;;;;;9.63;4.75;;;19.10;69.90;;;;;;5012511;28;20053;-68
2022/04/17 11:14:21;;;;;;;6.15;4.13;;;19.10;69.80;;;;;;5013698;28;20049;-67
2022/04/17 11:16:58;;;;;;;4.25;3.30;;;19.10;71.40;;;;;;5015861;28;20133;-68
2022/04/17 11:19:28;;;;;;;5.05;4.03;;;19.30;73.00;;;;;;5020519;28;20049;-68
2022/04/17 11:22:00;;;;;;;6.13;4.70;;;19.30;70.40;;;;;;5027732;28;20046;-68
2022/04/17 11:25:00;;;;;;;6.35;4.82;;;19.30;71.80;;;;;;5025198;28;20048;-68
2022/04/17 11:27:32;;;;;;;10.02;4.68;;;19.60;73.40;;;;;;5033323;28;20121;-68
2022/04/17 11:30:01;;;;;;;7.30;4.97;;;19.80;73.20;;;;;;5033705;28;20052;-68
2022/04/17 11:32:29;;;;;;;6.03;4.28;;;19.80;71.20;;;;;;5030514;28;20112;-68
2022/04/17 11:34:57;;;;;;;5.78;4.15;;;20.00;72.80;;;;;;5030568;28;20050;-69
2022/04/17 11:37:24;;;;;;;4.72;3.42;;;19.80;70.80;;;;;;5033337;28;20198;-68
2022/04/17 11:39:50;;;;;;;5.57;3.75;;;20.00;69.70;;;;;;5014724;28;20128;-69
2022/04/17 11:42:17;;;;;;;7.88;4.70;;;20.20;72.20;;;;;;5013740;28;20053;-69
2022/04/17 11:44:44;;;;;;;12.23;4.45;;;20.30;70.00;;;;;;5017617;28;20452;-69
2022/04/17 11:47:17;;;;;;;5.57;4.57;;;20.40;71.00;;;;;;5013749;28;20676;-69
2022/04/17 11:49:44;;;;;;;5.45;4.15;;;20.20;70.00;;;;;;5013260;28;20057;-68
2022/04/17 11:52:18;;;;;;;5.72;4.00;;;20.30;70.20;;;;;;5013386;28;20037;-69
2022/04/17 11:54:45;;;;;;;5.82;3.90;;;20.60;69.90;;;;;;5012436;28;20058;-69
2022/04/17 11:57:11;;;;;;;4.78;3.75;;;20.80;69.90;;;;;;5016666;28;20092;-70
2022/04/17 11:59:50;;;;;;;5.28;3.03;;;20.80;69.50;;;;;;5013406;28;20050;-69
2022/04/17 12:02:17;;;;;;;5.40;3.67;;;20.60;71.40;;;;;;5012982;28;20111;-69
2022/04/17 12:05:04;;;;;;;6.68;3.47;;;20.60;68.80;;;;;;5012959;28;20081;-69
2022/04/17 12:07:30;;;;;;;5.18;3.47;;;20.90;66.90;;;;;;5012072;28;20050;-69
2022/04/17 12:10:06;;;;;;;5.15;3.80;;;20.90;67.20;;;;;;5011866;28;20083;-69
2022/04/17 12:12:36;;;;;;;5.25;3.03;;;20.90;68.10;;;;;;5015701;28;20049;-69
2022/04/17 12:15:03;;;;;;;2.63;2.22;;;21.10;66.20;;;;;;5013966;28;20523;-68
2022/04/17 12:17:32;;;;;;;7.53;4.03;;;21.10;67.30;;;;;;5020069;28;20367;-68
2022/04/17 12:19:58;;;;;;;4.93;3.13;;;21.30;66.40;;;;;;5017139;28;20059;-68
2022/04/17 12:22:24;;;;;;;9.82;3.50;;;21.50;66.50;;;;;;5015807;28;20030;-68
2022/04/17 12:24:50;;;;;;;6.47;3.47;;;21.40;67.10;;;;;;5017915;28;20085;-68
2022/04/17 12:27:19;;;;;;;8.43;3.45;;;21.70;66.40;;;;;;5017234;28;20581;-68
2022/04/17 12:29:49;;;;;;;5.68;3.10;;;21.80;68.60;;;;;;5031961;28;20045;-68
2022/04/17 12:32:16;;;;;;;5.63;3.38;;;21.90;65.30;;;;;;5032906;28;20056;-68
2022/04/17 12:34:46;;;;;;;3.90;2.85;;;21.80;65.00;;;;;;5013229;28;20073;-68
2022/04/17 12:37:33;;;;;;;3.70;2.72;;;21.70;64.90;;;;;;5012448;28;20044;-68
2022/04/17 12:40:21;;;;;;;3.30;3.00;;;22.20;67.10;;;;;;5012015;28;20128;-68
2022/04/17 12:42:48;;;;;;;4.68;3.38;;;22.30;61.70;;;;;;5012037;28;20520;-68
2022/04/17 12:45:26;;;;;;;4.95;3.75;;;22.10;64.70;;;;;;5020143;28;20093;-68
2022/04/17 12:48:05;;;;;;;3.83;3.10;;;22.10;63.60;;;;;;5020898;28;20397;-68
2022/04/17 12:50:30;;;;;;;5.47;3.40;;;22.40;63.70;;;;;;5011407;28;20087;-68
2022/04/17 12:52:57;;;;;;;5.20;3.47;;;22.50;63.10;;;;;;5015549;28;20128;-68
2022/04/17 12:55:30;;;;;;;5.88;3.53;;;22.20;63.80;;;;;;5012139;28;20066;-68
2022/04/17 12:57:56;;;;;;;5.75;3.25;;;22.40;66.50;;;;;;5011009;28;20584;-69
2022/04/17 13:00:26;;;;;;;4.88;3.10;;;22.60;64.30;;;;;;5011308;28;20046;-68
2022/04/17 13:03:11;;;;;;;4.45;3.20;;;22.60;62.70;;;;;;5012488;28;20042;-68
2022/04/17 13:05:37;;;;;;;6.10;3.45;;;22.60;63.00;;;;;;5011958;28;20049;-68
2022/04/17 13:08:07;;;;;;;4.47;2.70;;;22.70;62.80;;;;;;5011463;28;20045;-68